Time;durP1;ratioP1;P1;durP2;ratioP2;P2;SDS_P1;SDS_P2;PMS_P1;PMS_P2;Temp;Humidity;BMP_temperature;BMP_pressure;BME280_temperature;BME280_humidity;BME280_pressure;Samples;Min_cycle;Max_cycle;Signal;HPM_P1;HPM_P2
2022/06/24 00:01:02;;;;;;;7.28;4.95;;;14.80;99.90;;;;;;10480673;28;20476;-83
2022/06/24 00:06:12;;;;;;;6.50;4.70;;;14.60;99.90;;;;;;10485944;28;20036;-85
2022/06/24 00:11:13;;;;;;;6.78;4.85;;;14.60;99.90;;;;;;10480504;28;20170;-85
2022/06/24 00:16:14;;;;;;;8.80;4.53;;;14.50;99.90;;;;;;10457512;28;20613;-82
2022/06/24 00:21:14;;;;;;;8.18;4.85;;;14.50;99.90;;;;;;10471851;28;20118;-84
2022/06/24 00:26:15;;;;;;;8.20;5.00;;;14.50;99.90;;;;;;10464344;28;20044;-83
2022/06/24 00:31:16;;;;;;;8.50;5.28;;;14.50;99.90;;;;;;10445951;28;20102;-83
2022/06/24 00:36:22;;;;;;;9.35;5.20;;;14.40;99.90;;;;;;10476534;28;20036;-84
2022/06/24 00:41:25;;;;;;;8.18;5.35;;;14.40;99.90;;;;;;10456260;28;20373;-84
2022/06/24 00:46:30;;;;;;;8.23;5.32;;;14.40;99.90;;;;;;10482483;28;20403;-86
2022/06/24 00:51:33;;;;;;;9.48;5.72;;;14.50;99.90;;;;;;10472977;28;20115;-83
2022/06/24 00:56:34;;;;;;;8.07;5.85;;;14.60;99.90;;;;;;10479163;28;20052;-83
2022/06/24 01:01:40;;;;;;;8.68;4.88;;;14.60;99.90;;;;;;10448252;28;20024;-84
2022/06/24 01:06:43;;;;;;;9.27;5.32;;;14.70;99.90;;;;;;10445857;28;20033;-84
2022/06/24 01:11:44;;;;;;;6.55;5.18;;;14.60;99.90;;;;;;10456715;28;20697;-83
2022/06/24 01:16:44;;;;;;;7.95;4.57;;;14.50;99.90;;;;;;10455481;28;20104;-83
2022/06/24 01:21:48;;;;;;;8.10;5.10;;;14.40;99.90;;;;;;10457449;28;20028;-83
2022/06/24 01:26:58;;;;;;;10.40;5.28;;;14.30;99.90;;;;;;10466082;28;20033;-84
2022/06/24 01:31:59;;;;;;;12.77;6.28;;;14.30;99.90;;;;;;10477661;28;20024;-86
2022/06/24 01:36:59;;;;;;;7.28;5.05;;;14.20;99.90;;;;;;10480755;28;20490;-83
2022/06/24 01:42:00;;;;;;;6.18;5.55;;;14.20;99.90;;;;;;10485859;28;20020;-83
2022/06/24 01:47:01;;;;;;;8.98;5.97;;;14.10;99.90;;;;;;10485303;28;20036;-83
2022/06/24 01:52:01;;;;;;;7.50;5.78;;;14.10;99.90;;;;;;10478900;28;20539;-84
2022/06/24 01:57:02;;;;;;;8.27;5.88;;;13.90;99.90;;;;;;10472354;28;20109;-83
2022/06/24 02:02:03;;;;;;;10.30;5.93;;;13.90;99.90;;;;;;10478277;28;20029;-83
2022/06/24 02:07:04;;;;;;;8.38;6.05;;;13.80;99.90;;;;;;10482143;28;20036;-84
2022/06/24 02:17:24;;;;;;;6.60;4.90;;;13.80;99.90;;;;;;10482050;28;20036;-83
2022/06/24 02:22:25;;;;;;;9.30;6.20;;;13.70;99.90;;;;;;10479199;28;20044;-84
2022/06/24 02:27:25;;;;;;;7.15;5.30;;;13.70;99.90;;;;;;10477583;28;20028;-84
2022/06/24 02:32:26;;;;;;;10.45;5.50;;;13.70;99.90;;;;;;10482521;28;20033;-84
2022/06/24 02:37:27;;;;;;;8.50;5.50;;;13.70;99.90;;;;;;10479683;28;20029;-84
2022/06/24 02:42:27;;;;;;;9.10;5.85;;;13.70;99.90;;;;;;10472449;28;20504;-84
2022/06/24 02:47:28;;;;;;;7.60;5.63;;;13.60;99.90;;;;;;10471171;28;20056;-83
2022/06/24 02:52:28;;;;;;;8.73;5.85;;;13.60;99.90;;;;;;10471608;28;20040;-84
2022/06/24 02:57:29;;;;;;;8.73;5.72;;;13.50;99.90;;;;;;10482717;28;20035;-86
2022/06/24 03:02:29;;;;;;;7.45;5.70;;;13.40;99.90;;;;;;10470833;28;20442;-86
2022/06/24 03:07:30;;;;;;;8.07;6.18;;;13.50;99.90;;;;;;10486640;28;20659;-84
2022/06/24 03:12:30;;;;;;;8.60;5.90;;;13.60;99.90;;;;;;10483154;28;20028;-84
2022/06/24 03:17:31;;;;;;;9.43;6.10;;;13.70;99.90;;;;;;10488792;28;20031;-86
2022/06/24 03:22:32;;;;;;;15.82;6.50;;;13.80;99.90;;;;;;10491847;28;20043;-83
2022/06/24 03:27:33;;;;;;;10.00;6.35;;;13.80;99.90;;;;;;10479092;28;20033;-83
2022/06/24 03:32:34;;;;;;;11.43;6.03;;;13.90;99.90;;;;;;10475542;28;20025;-83
2022/06/24 03:37:35;;;;;;;10.95;6.47;;;14.00;99.90;;;;;;10486674;28;20032;-85
2022/06/24 03:42:36;;;;;;;9.85;5.90;;;14.00;99.90;;;;;;10479068;28;20036;-84
2022/06/24 03:47:36;;;;;;;16.25;6.82;;;14.20;99.90;;;;;;10490738;28;20024;-85
2022/06/24 03:52:37;;;;;;;11.85;6.72;;;14.40;99.90;;;;;;10480212;28;20483;-83
2022/06/24 03:57:38;;;;;;;10.75;6.80;;;14.60;99.90;;;;;;10473467;28;20020;-84
2022/06/24 04:02:38;;;;;;;12.18;7.18;;;14.60;99.90;;;;;;10478638;28;20688;-85
2022/06/24 04:07:39;;;;;;;11.18;6.07;;;14.50;99.90;;;;;;10482541;28;20036;-83
2022/06/24 04:12:40;;;;;;;10.27;6.32;;;14.50;99.90;;;;;;10475661;28;20020;-84
2022/06/24 04:17:42;;;;;;;15.07;6.40;;;14.60;99.90;;;;;;10473370;28;20033;-85
2022/06/24 04:22:43;;;;;;;11.52;6.13;;;14.80;99.90;;;;;;10488942;28;20403;-84
2022/06/24 04:27:45;;;;;;;11.95;6.88;;;15.20;99.90;;;;;;10477527;28;20032;-84
2022/06/24 04:32:45;;;;;;;9.70;6.00;;;15.50;99.90;;;;;;10488723;28;20027;-86
2022/06/24 04:37:46;;;;;;;11.38;6.25;;;15.60;99.90;;;;;;10481231;28;20029;-85
2022/06/24 04:42:46;;;;;;;14.02;6.25;;;15.80;99.90;;;;;;10479398;28;20037;-84
2022/06/24 04:47:47;;;;;;;11.52;6.05;;;15.90;99.90;;;;;;10478888;28;20039;-85
2022/06/24 04:52:47;;;;;;;10.30;5.65;;;16.10;99.90;;;;;;10472422;28;20065;-85
2022/06/24 04:57:48;;;;;;;11.40;5.75;;;16.40;99.90;;;;;;10482749;28;20025;-86
2022/06/24 05:02:49;;;;;;;11.07;5.40;;;16.70;99.90;;;;;;10469496;28;20036;-86
2022/06/24 05:07:49;;;;;;;10.18;5.70;;;16.90;99.90;;;;;;10486997;28;20078;-84
2022/06/24 05:12:50;;;;;;;9.80;5.60;;;17.20;99.90;;;;;;10475868;28;20109;-84
2022/06/24 05:17:50;;;;;;;9.55;4.85;;;17.50;99.90;;;;;;10475170;28;20033;-84
2022/06/24 05:22:51;;;;;;;6.85;3.53;;;17.70;99.90;;;;;;10474511;28;20075;-87
2022/06/24 05:27:52;;;;;;;4.70;3.10;;;17.90;99.90;;;;;;10483322;28;20044;-83
2022/06/24 05:32:52;;;;;;;5.72;3.28;;;18.30;99.90;;;;;;10484544;28;20035;-84
2022/06/24 05:37:53;;;;;;;4.55;2.85;;;18.60;98.70;;;;;;10481945;28;20527;-84
2022/06/24 05:42:53;;;;;;;3.83;3.00;;;18.90;96.30;;;;;;10482060;28;20124;-84
2022/06/24 05:47:54;;;;;;;3.70;2.60;;;19.20;95.40;;;;;;10457292;28;20033;-85
2022/06/24 05:58:14;;;;;;;5.13;2.83;;;19.70;91.40;;;;;;10459513;28;20497;-83
2022/06/24 06:03:15;;;;;;;3.83;2.90;;;20.00;89.90;;;;;;10483852;28;20479;-83
2022/06/24 06:08:17;;;;;;;3.75;2.85;;;20.30;90.10;;;;;;10471673;28;20048;-84
2022/06/24 06:13:18;;;;;;;4.50;2.65;;;20.50;88.20;;;;;;10473016;28;20021;-85
2022/06/24 06:18:19;;;;;;;7.15;3.45;;;20.70;88.10;;;;;;10457902;28;20059;-84
2022/06/24 06:23:19;;;;;;;5.30;3.20;;;20.90;89.00;;;;;;10456789;28;20043;-83
2022/06/24 06:28:20;;;;;;;8.15;3.45;;;21.20;84.10;;;;;;10477742;28;20020;-83
2022/06/24 06:33:21;;;;;;;6.10;3.92;;;21.50;82.80;;;;;;10475854;28;20037;-83
2022/06/24 06:38:21;;;;;;;8.40;4.18;;;21.70;81.50;;;;;;10480771;28;20170;-83
2022/06/24 06:43:22;;;;;;;7.97;4.10;;;21.90;80.10;;;;;;10473167;28;20796;-87
2022/06/24 06:48:24;;;;;;;6.32;3.50;;;22.00;78.70;;;;;;10462609;28;20035;-84
2022/06/24 06:53:26;;;;;;;4.55;2.70;;;22.30;79.90;;;;;;10470715;28;20499;-84
2022/06/24 06:58:26;;;;;;;3.38;2.80;;;22.90;79.10;;;;;;10477778;28;20013;-86
2022/06/24 07:03:27;;;;;;;4.13;2.28;;;24.60;71.70;;;;;;10482192;28;20036;-84
2022/06/24 07:08:27;;;;;;;4.85;1.88;;;26.20;70.60;;;;;;10479800;28;20021;-84
2022/06/24 07:13:28;;;;;;;4.95;2.30;;;27.20;61.30;;;;;;10475990;28;20040;-85
2022/06/24 07:18:29;;;;;;;2.50;1.77;;;27.80;61.50;;;;;;10479685;28;20027;-85
2022/06/24 07:23:29;;;;;;;3.60;1.48;;;28.30;58.20;;;;;;10474611;28;20030;-84
2022/06/24 07:28:30;;;;;;;3.75;1.42;;;28.70;58.20;;;;;;10466155;28;20027;-85
2022/06/24 07:33:30;;;;;;;2.63;1.65;;;29.20;56.60;;;;;;10467166;28;20087;-85
2022/06/24 07:38:31;;;;;;;2.78;1.58;;;29.50;54.40;;;;;;10477523;28;20140;-82
2022/06/24 07:43:35;;;;;;;2.60;1.30;;;29.50;54.10;;;;;;10481553;28;20033;-84
2022/06/24 07:48:36;;;;;;;4.60;1.55;;;29.50;54.10;;;;;;10471547;28;20102;-82
2022/06/24 07:53:36;;;;;;;6.70;1.77;;;29.40;54.40;;;;;;10479060;28;20127;-83
2022/06/24 07:58:37;;;;;;;2.85;1.50;;;28.90;50.90;;;;;;10487205;28;20090;-82
2022/06/24 08:03:38;;;;;;;1.92;1.40;;;28.30;52.50;;;;;;10488126;28;20028;-84
2022/06/24 08:08:38;;;;;;;2.42;1.58;;;28.00;53.30;;;;;;10462570;28;20067;-81
2022/06/24 08:13:40;;;;;;;1.70;1.50;;;27.60;53.50;;;;;;10466987;28;20663;-81
2022/06/24 08:18:40;;;;;;;4.22;2.30;;;27.50;57.00;;;;;;10482300;28;20460;-81
2022/06/24 08:23:41;;;;;;;3.05;2.00;;;27.50;57.00;;;;;;10481423;28;20024;-83
2022/06/24 08:28:42;;;;;;;4.75;1.60;;;27.70;54.50;;;;;;10484008;28;20483;-82
2022/06/24 08:33:42;;;;;;;4.50;1.83;;;27.80;54.50;;;;;;10486256;28;20075;-81
2022/06/24 08:38:58;;;;;;;1.48;1.38;;;28.10;55.00;;;;;;10486608;28;20117;-83
2022/06/24 08:43:59;;;;;;;1.85;1.42;;;28.20;52.70;;;;;;10476474;28;20043;-84
2022/06/24 08:55:16;;;;;;;3.33;1.88;;;28.20;54.10;;;;;;10389022;28;20454;-81
2022/06/24 09:00:18;;;;;;;3.50;2.10;;;28.50;52.80;;;;;;10482820;28;20017;-82
2022/06/24 09:05:19;;;;;;;2.95;1.98;;;28.50;54.30;;;;;;10466742;28;20021;-81
2022/06/24 09:10:19;;;;;;;4.15;2.10;;;28.40;54.30;;;;;;10475000;28;20034;-82
2022/06/24 09:15:20;;;;;;;2.92;2.03;;;28.60;55.50;;;;;;10485069;28;20032;-83
2022/06/24 09:20:23;;;;;;;3.22;2.28;;;28.80;54.20;;;;;;10483486;28;20040;-84
2022/06/24 09:25:24;;;;;;;3.80;1.90;;;28.90;54.70;;;;;;10476920;28;20826;-83
2022/06/24 09:30:35;;;;;;;4.05;1.85;;;29.00;54.40;;;;;;10483302;28;20032;-82
2022/06/24 09:35:36;;;;;;;2.08;1.80;;;29.50;55.50;;;;;;10463867;28;20472;-82
2022/06/24 09:40:42;;;;;;;2.15;1.95;;;29.50;55.80;;;;;;10485267;28;20029;-82
2022/06/24 09:45:46;;;;;;;3.38;2.03;;;29.50;55.20;;;;;;10484648;28;20375;-82
2022/06/24 09:50:46;;;;;;;3.20;2.03;;;29.30;54.00;;;;;;10461533;28;20024;-82
2022/06/24 09:55:47;;;;;;;8.65;1.88;;;28.90;57.70;;;;;;10469447;28;20068;-82
2022/06/24 10:00:49;;;;;;;4.07;2.35;;;29.30;56.00;;;;;;10474699;28;20472;-82
2022/06/24 10:05:51;;;;;;;3.35;2.10;;;29.40;53.90;;;;;;10475048;28;20028;-82
2022/06/24 10:10:54;;;;;;;4.38;2.10;;;29.50;56.00;;;;;;10465717;28;20383;-81
2022/06/24 10:15:56;;;;;;;3.03;2.17;;;29.70;56.50;;;;;;10478211;28;20642;-82
2022/06/24 10:20:59;;;;;;;3.20;2.05;;;29.90;58.20;;;;;;10467642;28;20024;-82
2022/06/24 10:26:28;;;;;;;3.95;1.92;;;30.10;55.40;;;;;;10461643;28;20033;-82
2022/06/24 10:32:06;;;;;;;3.10;2.30;;;29.80;56.90;;;;;;10439417;28;20081;-81
2022/06/24 10:37:25;;;;;;;5.90;2.17;;;29.90;55.40;;;;;;10449489;28;20439;-83
2022/06/24 10:42:26;;;;;;;5.78;2.30;;;30.10;56.00;;;;;;10466936;28;20024;-82
2022/06/24 10:47:39;;;;;;;4.85;3.13;;;30.10;54.80;;;;;;10482615;28;20063;-83
2022/06/24 10:52:47;;;;;;;6.88;2.65;;;30.00;54.00;;;;;;10483748;28;20535;-82
2022/06/24 10:57:50;;;;;;;6.72;2.63;;;30.00;54.20;;;;;;10474866;28;20474;-82
2022/06/24 11:02:53;;;;;;;6.45;2.60;;;30.10;55.10;;;;;;10449018;28;20028;-83
2022/06/24 11:07:54;;;;;;;3.05;2.13;;;30.20;55.00;;;;;;10434098;28;20040;-85
2022/06/24 11:12:58;;;;;;;4.88;2.08;;;30.30;56.30;;;;;;10447385;28;20510;-82
2022/06/24 11:18:14;;;;;;;5.93;2.70;;;30.40;53.80;;;;;;10463149;28;20017;-83
2022/06/24 11:23:19;;;;;;;4.00;2.35;;;30.60;53.90;;;;;;10430802;28;20267;-82
2022/06/24 11:28:30;;;;;;;5.20;2.45;;;30.40;53.50;;;;;;10437831;28;20468;-83
2022/06/24 11:33:31;;;;;;;4.85;2.35;;;30.40;52.70;;;;;;10462446;28;20028;-83
2022/06/24 11:38:36;;;;;;;3.13;1.80;;;30.60;57.70;;;;;;10475543;28;20029;-84
2022/06/24 11:43:36;;;;;;;3.58;2.20;;;30.80;54.90;;;;;;10474474;28;20506;-82
2022/06/24 11:48:37;;;;;;;4.13;2.35;;;30.80;53.40;;;;;;10476364;28;20017;-82
2022/06/24 11:53:37;;;;;;;3.33;2.25;;;30.80;52.70;;;;;;10481683;28;20059;-82
2022/06/24 11:58:39;;;;;;;4.15;2.25;;;30.80;54.20;;;;;;10483126;28;20032;-84
2022/06/24 12:03:40;;;;;;;10.77;4.60;;;30.70;55.80;;;;;;10490316;28;20059;-82
2022/06/24 12:08:41;;;;;;;3.63;2.28;;;31.00;53.40;;;;;;10474219;28;20029;-84
2022/06/24 12:13:42;;;;;;;5.65;2.70;;;30.70;53.20;;;;;;10487087;28;20028;-82
2022/06/24 12:18:43;;;;;;;3.38;2.10;;;29.30;52.70;;;;;;10469605;28;20026;-84
2022/06/24 12:23:44;;;;;;;3.28;2.05;;;29.70;55.60;;;;;;10466304;28;20036;-82
2022/06/24 12:28:56;;;;;;;4.78;2.50;;;30.40;53.70;;;;;;10477921;28;20032;-82
2022/06/24 12:33:58;;;;;;;7.53;1.90;;;30.60;54.80;;;;;;10477600;28;20541;-82
2022/06/24 12:39:10;;;;;;;3.97;2.30;;;30.90;54.90;;;;;;10477330;28;20545;-82
2022/06/24 12:44:11;;;;;;;4.55;2.30;;;31.00;53.30;;;;;;10482070;28;20017;-82
2022/06/24 12:54:32;;;;;;;7.03;3.30;;;30.30;53.70;;;;;;10465555;28;20053;-82
2022/06/24 12:59:33;;;;;;;3.90;2.15;;;29.70;53.60;;;;;;10467543;28;20024;-82
2022/06/24 13:04:34;;;;;;;16.98;7.40;;;30.20;55.00;;;;;;10483197;28;20811;-81
2022/06/24 13:09:38;;;;;;;5.00;3.88;;;29.90;53.10;;;;;;10473462;28;20483;-85
2022/06/24 13:14:39;;;;;;;3.42;2.28;;;29.80;52.80;;;;;;10466181;28;20064;-83
2022/06/24 13:19:40;;;;;;;3.25;1.80;;;30.10;54.20;;;;;;10474660;28;20516;-84
2022/06/24 13:24:40;;;;;;;3.50;2.03;;;30.00;56.10;;;;;;10471503;28;20459;-82
2022/06/24 13:29:41;;;;;;;2.50;2.03;;;30.40;55.30;;;;;;10476097;28;20711;-84
2022/06/24 13:34:41;;;;;;;5.00;2.38;;;30.60;54.50;;;;;;10476906;28;20044;-83
2022/06/24 13:39:42;;;;;;;2.95;2.60;;;30.60;54.00;;;;;;10484178;28;20032;-82
2022/06/24 13:44:42;;;;;;;4.78;3.10;;;30.50;51.30;;;;;;10486139;28;20472;-82
2022/06/24 13:49:43;;;;;;;2.85;1.80;;;30.40;53.90;;;;;;10481130;28;20047;-82
2022/06/24 13:54:44;;;;;;;3.85;1.80;;;30.20;54.70;;;;;;10471798;28;20514;-82
2022/06/24 13:59:46;;;;;;;2.05;1.75;;;30.30;53.50;;;;;;10469999;28;20017;-83
2022/06/24 14:04:47;;;;;;;5.95;2.47;;;30.20;53.20;;;;;;10483799;28;20028;-84
2022/06/24 14:09:48;;;;;;;5.95;2.50;;;29.90;52.00;;;;;;10482200;28;20384;-82
2022/06/24 14:14:48;;;;;;;7.18;4.88;;;29.20;53.00;;;;;;10484507;28;20044;-82
2022/06/24 14:19:49;;;;;;;5.05;2.30;;;28.60;54.70;;;;;;10467464;28;20036;-83
2022/06/24 14:24:49;;;;;;;2.30;1.80;;;28.50;54.80;;;;;;10475439;28;20032;-83
2022/06/24 14:29:50;;;;;;;4.68;2.45;;;28.70;55.20;;;;;;10474965;28;20031;-82
2022/06/24 14:34:50;;;;;;;4.65;3.30;;;28.60;54.30;;;;;;10478896;28;20028;-84
2022/06/24 14:45:10;;;;;;;9.05;4.53;;;28.60;56.20;;;;;;10479198;28;20425;-82
2022/06/24 14:50:11;;;;;;;2.83;2.42;;;28.40;55.20;;;;;;10483965;28;20032;-82
2022/06/24 14:55:11;;;;;;;5.60;4.45;;;28.30;57.60;;;;;;10473584;28;20049;-84
2022/06/24 15:00:12;;;;;;;3.28;2.95;;;28.30;55.90;;;;;;10476688;28;20031;-81
2022/06/24 15:05:13;;;;;;;6.75;3.70;;;28.40;56.00;;;;;;10492979;28;20036;-83
2022/06/24 15:10:14;;;;;;;2.97;2.72;;;28.40;55.10;;;;;;10486293;28;20035;-82
2022/06/24 15:15:15;;;;;;;3.15;2.65;;;28.40;57.40;;;;;;10490748;28;20040;-82
2022/06/24 15:20:15;;;;;;;5.03;3.00;;;28.50;56.90;;;;;;10464641;28;20491;-82
2022/06/24 15:25:16;;;;;;;3.65;3.10;;;28.40;55.00;;;;;;10478895;28;20511;-83
2022/06/24 15:30:16;;;;;;;6.78;2.47;;;28.20;56.90;;;;;;10487721;28;20021;-83
2022/06/24 15:35:18;;;;;;;5.82;3.15;;;28.00;55.90;;;;;;10482297;28;20032;-82
2022/06/24 15:40:19;;;;;;;2.58;2.25;;;27.70;57.00;;;;;;10459652;28;20027;-85
2022/06/24 15:45:21;;;;;;;6.15;2.95;;;27.60;57.90;;;;;;10480131;28;20063;-82
2022/06/24 15:50:22;;;;;;;2.30;2.10;;;27.60;58.30;;;;;;10471590;28;20031;-84
2022/06/24 15:55:23;;;;;;;4.28;3.30;;;27.60;57.80;;;;;;10463582;28;20139;-85
2022/06/24 16:00:25;;;;;;;4.85;2.83;;;27.60;60.00;;;;;;10457185;28;20029;-81
2022/06/24 16:05:26;;;;;;;5.07;3.35;;;27.60;59.00;;;;;;10454848;28;20523;-83
2022/06/24 16:10:27;;;;;;;3.90;2.72;;;27.50;59.50;;;;;;10461882;28;20028;-82
2022/06/24 16:15:27;;;;;;;6.68;2.55;;;27.30;59.30;;;;;;10464689;28;20510;-83
2022/06/24 16:20:28;;;;;;;3.08;2.20;;;27.00;59.70;;;;;;10479101;28;20099;-81
2022/06/24 16:30:49;;;;;;;4.13;2.28;;;26.80;60.50;;;;;;10463793;28;20041;-81
2022/06/24 16:35:50;;;;;;;3.08;2.40;;;26.80;62.20;;;;;;10448027;28;20580;-85
2022/06/24 16:40:51;;;;;;;4.47;1.85;;;26.70;61.10;;;;;;10480181;28;20019;-83
2022/06/24 16:45:53;;;;;;;2.47;1.90;;;26.60;61.10;;;;;;10456535;28;20460;-83
2022/06/24 16:50:55;;;;;;;6.00;2.90;;;26.60;62.40;;;;;;10458481;28;20028;-83
2022/06/24 16:55:56;;;;;;;3.15;2.05;;;26.50;59.30;;;;;;10455513;28;20086;-83
2022/06/24 17:01:00;;;;;;;6.38;2.58;;;26.40;60.80;;;;;;10466660;28;20021;-82
2022/06/24 17:06:05;;;;;;;3.95;2.28;;;26.20;62.70;;;;;;10458001;28;20396;-84
2022/06/24 17:11:07;;;;;;;7.97;3.10;;;26.10;63.10;;;;;;10447915;28;20033;-83
2022/06/24 17:16:09;;;;;;;2.50;2.20;;;26.00;62.80;;;;;;10444595;28;20528;-82
2022/06/24 17:21:12;;;;;;;5.40;2.60;;;25.90;63.20;;;;;;10449019;28;20022;-83
2022/06/24 17:26:13;;;;;;;9.57;2.92;;;25.80;63.60;;;;;;10443970;28;20032;-85
2022/06/24 17:31:13;;;;;;;5.57;2.53;;;25.70;63.10;;;;;;10458059;28;20036;-83
2022/06/24 17:36:17;;;;;;;5.28;2.60;;;25.60;64.70;;;;;;10462407;28;20044;-83
2022/06/24 17:41:17;;;;;;;4.35;2.70;;;25.40;65.00;;;;;;10470678;28;20435;-83
2022/06/24 17:46:18;;;;;;;4.93;2.63;;;25.20;66.20;;;;;;10479423;28;20031;-82
2022/06/24 17:51:19;;;;;;;4.18;2.35;;;25.00;65.30;;;;;;10467518;28;20029;-83
2022/06/24 17:56:19;;;;;;;3.75;2.28;;;24.80;67.80;;;;;;10479732;28;20053;-83
2022/06/24 18:01:20;;;;;;;4.15;2.28;;;24.60;68.50;;;;;;10473400;28;20020;-83
2022/06/24 18:06:21;;;;;;;2.78;2.38;;;24.40;68.80;;;;;;10480948;28;20024;-83
2022/06/24 18:11:21;;;;;;;6.50;2.47;;;24.10;68.20;;;;;;10481115;28;20032;-85
2022/06/24 18:16:22;;;;;;;5.30;2.75;;;23.90;70.60;;;;;;10474539;28;20050;-86
2022/06/24 18:21:23;;;;;;;6.60;2.95;;;23.80;69.00;;;;;;10477615;28;20701;-84
2022/06/24 18:26:24;;;;;;;3.10;2.72;;;23.60;70.50;;;;;;10473903;28;20039;-82
2022/06/24 18:31:24;;;;;;;4.95;2.88;;;23.50;70.90;;;;;;10481261;28;20039;-84
2022/06/24 18:36:25;;;;;;;4.75;3.17;;;23.30;71.40;;;;;;10436446;28;20528;-83
2022/06/24 18:41:26;;;;;;;5.45;3.10;;;23.10;71.60;;;;;;10444191;28;20723;-83
2022/06/24 18:46:26;;;;;;;4.03;2.40;;;22.90;71.90;;;;;;10448652;28;20586;-83
2022/06/24 18:51:27;;;;;;;4.35;2.80;;;22.90;72.00;;;;;;10440940;28;20052;-83
2022/06/24 18:56:27;;;;;;;8.77;3.20;;;22.80;71.80;;;;;;10454427;28;20067;-82
2022/06/24 19:01:29;;;;;;;5.32;2.90;;;22.70;72.10;;;;;;10457605;28;20048;-83
2022/06/24 19:06:30;;;;;;;4.22;2.95;;;22.70;71.90;;;;;;10462058;28;20021;-83
2022/06/24 19:11:30;;;;;;;4.30;2.90;;;22.70;72.00;;;;;;10475694;28;20042;-84
2022/06/24 19:16:31;;;;;;;5.25;2.90;;;22.60;72.30;;;;;;10463919;28;20024;-83
2022/06/24 19:21:36;;;;;;;4.43;2.80;;;22.50;72.80;;;;;;10453384;28;20035;-83
2022/06/24 19:26:38;;;;;;;5.32;3.10;;;22.40;73.20;;;;;;10476742;28;20017;-83
2022/06/24 19:31:39;;;;;;;4.30;2.47;;;22.30;73.50;;;;;;10482239;28;20033;-83
2022/06/24 19:36:39;;;;;;;4.07;2.58;;;22.20;73.80;;;;;;10484918;28;20033;-83
2022/06/24 19:41:40;;;;;;;6.32;3.17;;;22.20;74.80;;;;;;10473266;28;20029;-83
2022/06/24 19:46:42;;;;;;;3.25;2.58;;;22.10;74.60;;;;;;10477439;28;20107;-83
2022/06/24 19:51:42;;;;;;;4.15;2.67;;;22.10;75.00;;;;;;10484630;28;20024;-83
2022/06/24 19:56:44;;;;;;;3.15;2.80;;;22.00;75.30;;;;;;10490779;28;20041;-84
2022/06/24 20:07:04;;;;;;;5.80;2.97;;;21.90;75.70;;;;;;10469826;28;20037;-83
2022/06/24 20:12:08;;;;;;;4.57;2.90;;;21.80;75.80;;;;;;10482152;28;20060;-82
2022/06/24 20:17:10;;;;;;;8.10;3.60;;;21.90;76.40;;;;;;10471770;28;20032;-82
2022/06/24 20:22:10;;;;;;;8.48;3.80;;;21.80;76.80;;;;;;10489104;28;20119;-83
2022/06/24 20:27:13;;;;;;;11.40;3.80;;;21.70;76.70;;;;;;10489736;28;20566;-83
2022/06/24 20:32:14;;;;;;;5.72;3.75;;;21.80;76.90;;;;;;10491711;28;20466;-83
2022/06/24 20:37:15;;;;;;;7.28;4.13;;;21.80;76.50;;;;;;10476327;28;20050;-84
2022/06/24 20:42:15;;;;;;;9.43;5.10;;;21.80;76.70;;;;;;10484929;28;20025;-83
2022/06/24 20:47:16;;;;;;;9.98;5.35;;;21.80;76.40;;;;;;10488742;28;20034;-84
2022/06/24 20:52:17;;;;;;;8.90;5.20;;;21.80;76.50;;;;;;10484847;28;20523;-83
2022/06/24 20:57:18;;;;;;;6.22;4.05;;;21.70;77.00;;;;;;10477289;28;20044;-85
2022/06/24 21:02:18;;;;;;;6.85;4.28;;;21.60;77.00;;;;;;10476211;28;20439;-86
2022/06/24 21:07:19;;;;;;;12.10;5.38;;;21.50;77.20;;;;;;10477588;28;20353;-83
2022/06/24 21:12:20;;;;;;;14.35;5.20;;;21.50;77.10;;;;;;10485529;28;20059;-82
2022/06/24 21:17:57;;;;;;;8.85;5.03;;;21.50;77.60;;;;;;10483545;28;20407;-84
2022/06/24 21:22:58;;;;;;;9.05;5.22;;;21.40;77.90;;;;;;10475019;28;20013;-87
2022/06/24 21:27:58;;;;;;;12.35;5.05;;;21.30;78.10;;;;;;10480285;28;20515;-85
2022/06/24 21:32:59;;;;;;;10.00;4.78;;;21.30;78.30;;;;;;10485627;28;20545;-83
2022/06/24 21:37:59;;;;;;;12.88;5.95;;;21.20;78.90;;;;;;10465376;28;20034;-82
2022/06/24 21:43:00;;;;;;;10.98;5.65;;;21.10;78.80;;;;;;10482005;28;20039;-86
2022/06/24 21:48:00;;;;;;;11.95;5.78;;;21.10;79.20;;;;;;10459925;28;20053;-82
2022/06/24 21:53:01;;;;;;;12.13;5.18;;;21.10;79.70;;;;;;10473802;28;20048;-83
2022/06/24 21:58:02;;;;;;;11.80;4.68;;;21.10;79.20;;;;;;10467000;28;20028;-82
2022/06/24 22:03:03;;;;;;;8.63;4.22;;;21.20;80.20;;;;;;10479830;28;20033;-82
2022/06/24 22:08:12;;;;;;;11.90;4.25;;;21.10;80.40;;;;;;10475620;28;20024;-82
2022/06/24 22:13:13;;;;;;;11.63;4.80;;;21.10;80.40;;;;;;10476334;28;20033;-83
2022/06/24 22:18:13;;;;;;;11.73;4.47;;;20.90;80.70;;;;;;10476524;28;20030;-82
2022/06/24 22:23:14;;;;;;;7.72;4.38;;;20.90;80.90;;;;;;10477383;28;20025;-82
2022/06/24 22:28:15;;;;;;;10.95;5.65;;;20.70;81.20;;;;;;10465697;28;20035;-83
2022/06/24 22:33:16;;;;;;;12.27;5.53;;;20.60;82.00;;;;;;10462497;28;20104;-82
2022/06/24 22:38:16;;;;;;;12.30;5.40;;;20.40;82.60;;;;;;10475812;28;20025;-86
2022/06/24 22:43:17;;;;;;;14.38;5.43;;;20.20;83.50;;;;;;10483549;28;20025;-84
2022/06/24 22:48:17;;;;;;;11.15;4.95;;;19.90;84.40;;;;;;10480381;28;20024;-83
2022/06/24 22:53:18;;;;;;;9.70;5.30;;;19.60;85.60;;;;;;10475799;28;20045;-82
2022/06/24 22:58:19;;;;;;;7.68;4.28;;;19.30;86.60;;;;;;10476567;28;20028;-82
2022/06/24 23:03:19;;;;;;;10.57;4.47;;;19.10;87.60;;;;;;10483751;28;20033;-82
2022/06/24 23:08:20;;;;;;;11.75;4.35;;;18.90;88.00;;;;;;10479119;28;20024;-83
2022/06/24 23:13:21;;;;;;;7.75;4.05;;;18.80;89.10;;;;;;10476364;28;20027;-84
2022/06/24 23:18:21;;;;;;;5.88;3.78;;;18.60;89.70;;;;;;10471201;28;20379;-83
2022/06/24 23:23:22;;;;;;;8.35;3.83;;;18.50;90.10;;;;;;10482423;28;20481;-82
2022/06/24 23:28:22;;;;;;;6.05;3.70;;;18.30;90.50;;;;;;10488342;28;20040;-81
2022/06/24 23:33:23;;;;;;;6.55;3.08;;;18.20;90.80;;;;;;10484822;28;20032;-83
2022/06/24 23:38:24;;;;;;;5.88;4.15;;;18.20;91.10;;;;;;10483561;28;20041;-82
2022/06/24 23:43:26;;;;;;;8.20;4.05;;;18.10;91.50;;;;;;10478295;28;20111;-82
2022/06/24 23:53:46;;;;;;;12.60;4.90;;;18.00;92.80;;;;;;10484421;28;20088;-84
2022/06/24 23:58:47;;;;;;;10.82;4.63;;;17.80;93.40;;;;;;10486657;28;20100;-82
